sensor_id;sensor_type;location;lat;lon;timestamp;P1;durP1;ratioP1;P2;durP2;ratioP2
52396;SDS011;38322;53.108;6.308;2023-08-06T05:01:13;15.73;;;13.80;;
52396;SDS011;38322;53.108;6.308;2023-08-06T05:03:39;14.80;;;12.45;;
52396;SDS011;38322;53.108;6.308;2023-08-06T05:06:05;13.85;;;11.13;;
52396;SDS011;38322;53.108;6.308;2023-08-06T05:08:31;13.98;;;12.27;;
52396;SDS011;38322;53.108;6.308;2023-08-06T05:10:56;13.50;;;12.10;;
52396;SDS011;38322;53.108;6.308;2023-08-06T05:13:22;13.35;;;12.05;;
52396;SDS011;38322;53.108;6.308;2023-08-06T05:15:48;13.80;;;12.30;;
52396;SDS011;38322;53.108;6.308;2023-08-06T05:18:14;16.60;;;12.63;;
52396;SDS011;38322;53.108;6.308;2023-08-06T05:20:41;14.25;;;12.20;;
52396;SDS011;38322;53.108;6.308;2023-08-06T05:23:07;14.95;;;13.30;;
52396;SDS011;38322;53.108;6.308;2023-08-06T05:25:34;12.50;;;11.30;;
52396;SDS011;38322;53.108;6.308;2023-08-06T05:28:01;14.05;;;12.52;;
52396;SDS011;38322;53.108;6.308;2023-08-06T05:30:27;14.23;;;12.77;;
52396;SDS011;38322;53.108;6.308;2023-08-06T05:32:53;16.70;;;14.10;;
52396;SDS011;38322;53.108;6.308;2023-08-06T05:35:20;15.65;;;11.30;;
52396;SDS011;38322;53.108;6.308;2023-08-06T05:37:47;13.43;;;12.02;;
52396;SDS011;38322;53.108;6.308;2023-08-06T05:40:13;11.30;;;10.20;;
52396;SDS011;38322;53.108;6.308;2023-08-06T05:42:39;12.13;;;10.27;;
52396;SDS011;38322;53.108;6.308;2023-08-06T05:45:06;11.00;;;9.93;;
52396;SDS011;38322;53.108;6.308;2023-08-06T05:47:32;14.32;;;11.70;;
52396;SDS011;38322;53.108;6.308;2023-08-06T05:49:58;10.85;;;9.80;;
52396;SDS011;38322;53.108;6.308;2023-08-06T05:52:24;10.75;;;9.38;;
52396;SDS011;38322;53.108;6.308;2023-08-06T05:54:50;12.27;;;9.85;;
52396;SDS011;38322;53.108;6.308;2023-08-06T05:57:17;12.75;;;11.52;;
52396;SDS011;38322;53.108;6.308;2023-08-06T05:59:43;10.82;;;9.73;;
52396;SDS011;38322;53.108;6.308;2023-08-06T06:02:08;14.90;;;11.32;;
52396;SDS011;38322;53.108;6.308;2023-08-06T06:04:34;11.85;;;10.75;;
52396;SDS011;38322;53.108;6.308;2023-08-06T06:07:00;12.32;;;11.13;;
52396;SDS011;38322;53.108;6.308;2023-08-06T06:09:26;12.10;;;10.88;;
52396;SDS011;38322;53.108;6.308;2023-08-06T06:11:52;12.95;;;9.85;;
52396;SDS011;38322;53.108;6.308;2023-08-06T06:14:18;11.05;;;9.88;;
52396;SDS011;38322;53.108;6.308;2023-08-06T06:16:44;11.07;;;9.60;;
52396;SDS011;38322;53.108;6.308;2023-08-06T06:19:11;10.45;;;8.93;;
52396;SDS011;38322;53.108;6.308;2023-08-06T06:21:37;9.98;;;8.95;;
52396;SDS011;38322;53.108;6.308;2023-08-06T06:24:04;11.40;;;9.55;;
52396;SDS011;38322;53.108;6.308;2023-08-06T06:26:31;12.15;;;10.38;;
52396;SDS011;38322;53.108;6.308;2023-08-06T06:28:57;12.20;;;8.63;;
52396;SDS011;38322;53.108;6.308;2023-08-06T06:31:23;11.82;;;9.20;;
52396;SDS011;38322;53.108;6.308;2023-08-06T06:33:49;13.25;;;7.40;;
52396;SDS011;38322;53.108;6.308;2023-08-06T06:36:15;11.57;;;8.48;;
52396;SDS011;38322;53.108;6.308;2023-08-06T06:38:41;8.70;;;7.82;;
52396;SDS011;38322;53.108;6.308;2023-08-06T06:41:07;9.65;;;8.65;;
52396;SDS011;38322;53.108;6.308;2023-08-06T06:43:33;10.07;;;7.88;;
52396;SDS011;38322;53.108;6.308;2023-08-06T06:45:59;10.70;;;7.95;;
52396;SDS011;38322;53.108;6.308;2023-08-06T06:48:26;11.13;;;9.20;;
52396;SDS011;38322;53.108;6.308;2023-08-06T06:50:53;8.88;;;8.00;;
52396;SDS011;38322;53.108;6.308;2023-08-06T06:53:19;9.40;;;8.32;;
52396;SDS011;38322;53.108;6.308;2023-08-06T06:55:46;11.15;;;8.70;;
52396;SDS011;38322;53.108;6.308;2023-08-06T06:58:14;9.40;;;7.65;;
52396;SDS011;38322;53.108;6.308;2023-08-06T07:00:41;9.15;;;8.18;;
52396;SDS011;38322;53.108;6.308;2023-08-06T07:03:07;10.93;;;8.48;;
52396;SDS011;38322;53.108;6.308;2023-08-06T07:05:33;11.52;;;7.97;;
52396;SDS011;38322;53.108;6.308;2023-08-06T07:07:59;12.38;;;8.43;;
52396;SDS011;38322;53.108;6.308;2023-08-06T07:10:25;9.15;;;8.02;;
52396;SDS011;38322;53.108;6.308;2023-08-06T07:12:51;10.27;;;8.43;;
52396;SDS011;38322;53.108;6.308;2023-08-06T07:15:17;10.35;;;7.65;;
52396;SDS011;38322;53.108;6.308;2023-08-06T07:17:43;9.88;;;8.88;;
52396;SDS011;38322;53.108;6.308;2023-08-06T07:20:09;10.27;;;9.27;;
52396;SDS011;38322;53.108;6.308;2023-08-06T07:22:35;13.27;;;8.65;;
52396;SDS011;38322;53.108;6.308;2023-08-06T07:25:01;10.20;;;7.82;;
52396;SDS011;38322;53.108;6.308;2023-08-06T07:27:27;8.82;;;7.75;;
52396;SDS011;38322;53.108;6.308;2023-08-06T07:29:53;8.75;;;7.07;;
52396;SDS011;38322;53.108;6.308;2023-08-06T07:32:19;9.65;;;7.45;;
52396;SDS011;38322;53.108;6.308;2023-08-06T07:34:45;12.13;;;7.93;;
52396;SDS011;38322;53.108;6.308;2023-08-06T07:37:10;9.35;;;8.55;;
52396;SDS011;38322;53.108;6.308;2023-08-06T07:39:36;9.10;;;7.85;;
52396;SDS011;38322;53.108;6.308;2023-08-06T07:42:04;8.45;;;7.60;;
52396;SDS011;38322;53.108;6.308;2023-08-06T07:44:32;9.43;;;8.40;;
52396;SDS011;38322;53.108;6.308;2023-08-06T07:46:58;8.88;;;7.38;;
52396;SDS011;38322;53.108;6.308;2023-08-06T07:49:24;7.40;;;6.70;;
52396;SDS011;38322;53.108;6.308;2023-08-06T07:51:49;7.75;;;6.97;;
52396;SDS011;38322;53.108;6.308;2023-08-06T07:54:17;10.10;;;7.88;;
52396;SDS011;38322;53.108;6.308;2023-08-06T07:56:42;8.45;;;7.43;;
52396;SDS011;38322;53.108;6.308;2023-08-06T07:59:08;7.38;;;6.65;;
52396;SDS011;38322;53.108;6.308;2023-08-06T08:01:34;7.70;;;6.18;;
52396;SDS011;38322;53.108;6.308;2023-08-06T08:04:00;7.10;;;5.70;;
52396;SDS011;38322;53.108;6.308;2023-08-06T08:06:26;8.32;;;5.75;;
52396;SDS011;38322;53.108;6.308;2023-08-06T08:08:52;9.93;;;7.45;;
52396;SDS011;38322;53.108;6.308;2023-08-06T08:11:18;7.13;;;6.43;;
52396;SDS011;38322;53.108;6.308;2023-08-06T08:13:44;12.00;;;7.70;;
52396;SDS011;38322;53.108;6.308;2023-08-06T08:16:10;6.97;;;6.05;;
52396;SDS011;38322;53.108;6.308;2023-08-06T08:18:35;8.13;;;5.70;;
52396;SDS011;38322;53.108;6.308;2023-08-06T08:21:01;7.28;;;6.57;;
52396;SDS011;38322;53.108;6.308;2023-08-06T08:23:27;6.65;;;5.78;;
52396;SDS011;38322;53.108;6.308;2023-08-06T08:25:53;4.80;;;4.40;;
52396;SDS011;38322;53.108;6.308;2023-08-06T08:28:19;5.35;;;4.55;;
52396;SDS011;38322;53.108;6.308;2023-08-06T08:30:46;7.55;;;5.60;;
52396;SDS011;38322;53.108;6.308;2023-08-06T08:33:11;8.50;;;5.05;;
52396;SDS011;38322;53.108;6.308;2023-08-06T08:35:37;6.07;;;4.80;;
52396;SDS011;38322;53.108;6.308;2023-08-06T08:38:03;6.30;;;5.68;;
52396;SDS011;38322;53.108;6.308;2023-08-06T08:40:33;5.80;;;4.78;;
52396;SDS011;38322;53.108;6.308;2023-08-06T08:43:02;5.80;;;4.63;;
52396;SDS011;38322;53.108;6.308;2023-08-06T08:45:30;6.53;;;3.95;;
52396;SDS011;38322;53.108;6.308;2023-08-06T08:47:59;4.57;;;4.15;;
52396;SDS011;38322;53.108;6.308;2023-08-06T08:50:25;6.53;;;3.90;;
52396;SDS011;38322;53.108;6.308;2023-08-06T08:52:51;6.60;;;5.57;;
52396;SDS011;38322;53.108;6.308;2023-08-06T08:55:17;4.75;;;3.03;;
52396;SDS011;38322;53.108;6.308;2023-08-06T08:57:46;4.05;;;3.65;;
52396;SDS011;38322;53.108;6.308;2023-08-06T09:00:12;4.15;;;3.03;;
52396;SDS011;38322;53.108;6.308;2023-08-06T09:02:39;5.53;;;3.75;;
52396;SDS011;38322;53.108;6.308;2023-08-06T09:05:07;3.13;;;2.65;;
52396;SDS011;38322;53.108;6.308;2023-08-06T09:07:35;2.53;;;2.25;;
52396;SDS011;38322;53.108;6.308;2023-08-06T09:10:04;5.68;;;3.10;;
52396;SDS011;38322;53.108;6.308;2023-08-06T09:12:32;4.13;;;3.72;;
52396;SDS011;38322;53.108;6.308;2023-08-06T09:14:58;4.43;;;2.63;;
52396;SDS011;38322;53.108;6.308;2023-08-06T09:17:24;4.50;;;3.90;;
52396;SDS011;38322;53.108;6.308;2023-08-06T09:19:49;3.22;;;2.70;;
52396;SDS011;38322;53.108;6.308;2023-08-06T09:22:15;6.25;;;2.80;;
52396;SDS011;38322;53.108;6.308;2023-08-06T09:24:41;4.35;;;2.33;;
52396;SDS011;38322;53.108;6.308;2023-08-06T09:27:11;2.28;;;2.05;;
52396;SDS011;38322;53.108;6.308;2023-08-06T09:29:42;2.67;;;1.80;;
52396;SDS011;38322;53.108;6.308;2023-08-06T09:32:08;1.90;;;1.27;;
52396;SDS011;38322;53.108;6.308;2023-08-06T09:34:34;7.40;;;1.63;;
52396;SDS011;38322;53.108;6.308;2023-08-06T09:37:00;1.17;;;1.08;;
52396;SDS011;38322;53.108;6.308;2023-08-06T09:39:29;1.60;;;1.23;;
52396;SDS011;38322;53.108;6.308;2023-08-06T09:41:58;2.47;;;1.25;;
52396;SDS011;38322;53.108;6.308;2023-08-06T09:44:26;2.25;;;1.42;;
52396;SDS011;38322;53.108;6.308;2023-08-06T09:46:57;2.25;;;1.52;;
52396;SDS011;38322;53.108;6.308;2023-08-06T09:49:25;2.20;;;1.30;;
52396;SDS011;38322;53.108;6.308;2023-08-06T09:51:57;2.08;;;1.50;;
52396;SDS011;38322;53.108;6.308;2023-08-06T09:54:25;0.88;;;0.73;;
52396;SDS011;38322;53.108;6.308;2023-08-06T09:56:55;0.90;;;0.80;;
52396;SDS011;38322;53.108;6.308;2023-08-06T09:59:24;3.70;;;1.40;;
52396;SDS011;38322;53.108;6.308;2023-08-06T10:01:51;1.40;;;1.08;;
52396;SDS011;38322;53.108;6.308;2023-08-06T10:04:20;1.67;;;1.05;;
52396;SDS011;38322;53.108;6.308;2023-08-06T10:06:47;1.67;;;1.13;;
52396;SDS011;38322;53.108;6.308;2023-08-06T10:09:13;2.80;;;1.20;;
52396;SDS011;38322;53.108;6.308;2023-08-06T10:11:39;2.10;;;1.00;;
52396;SDS011;38322;53.108;6.308;2023-08-06T10:14:47;3.45;;;1.30;;
52396;SDS011;38322;53.108;6.308;2023-08-06T10:16:58;2.42;;;1.17;;
52396;SDS011;38322;53.108;6.308;2023-08-06T10:19:25;1.88;;;1.40;;
52396;SDS011;38322;53.108;6.308;2023-08-06T10:24:48;1.85;;;1.05;;
52396;SDS011;38322;53.108;6.308;2023-08-06T10:29:47;3.92;;;1.33;;
52396;SDS011;38322;53.108;6.308;2023-08-06T10:32:15;2.33;;;0.90;;
52396;SDS011;38322;53.108;6.308;2023-08-06T10:34:56;1.65;;;0.88;;
52396;SDS011;38322;53.108;6.308;2023-08-06T10:37:23;1.38;;;1.08;;
52396;SDS011;38322;53.108;6.308;2023-08-06T10:39:59;1.95;;;0.90;;
52396;SDS011;38322;53.108;6.308;2023-08-06T10:42:29;1.58;;;0.82;;
52396;SDS011;38322;53.108;6.308;2023-08-06T10:47:40;1.52;;;0.60;;
52396;SDS011;38322;53.108;6.308;2023-08-06T10:50:07;1.80;;;0.80;;
52396;SDS011;38322;53.108;6.308;2023-08-06T10:52:36;2.08;;;1.38;;
52396;SDS011;38322;53.108;6.308;2023-08-06T10:55:02;1.38;;;1.25;;
52396;SDS011;38322;53.108;6.308;2023-08-06T10:57:28;2.53;;;2.13;;
52396;SDS011;38322;53.108;6.308;2023-08-06T10:59:54;2.40;;;1.75;;
52396;SDS011;38322;53.108;6.308;2023-08-06T11:02:20;3.67;;;1.63;;
52396;SDS011;38322;53.108;6.308;2023-08-06T11:04:47;2.47;;;1.77;;
52396;SDS011;38322;53.108;6.308;2023-08-06T11:07:13;3.83;;;1.40;;
52396;SDS011;38322;53.108;6.308;2023-08-06T11:09:39;4.32;;;1.63;;
52396;SDS011;38322;53.108;6.308;2023-08-06T11:12:11;1.98;;;1.27;;
52396;SDS011;38322;53.108;6.308;2023-08-06T11:17:04;1.30;;;0.80;;
52396;SDS011;38322;53.108;6.308;2023-08-06T11:19:31;2.72;;;1.73;;
52396;SDS011;38322;53.108;6.308;2023-08-06T11:21:57;2.60;;;1.10;;
52396;SDS011;38322;53.108;6.308;2023-08-06T11:24:23;2.45;;;1.33;;
52396;SDS011;38322;53.108;6.308;2023-08-06T11:26:49;3.85;;;1.05;;
52396;SDS011;38322;53.108;6.308;2023-08-06T11:29:15;2.80;;;0.90;;
52396;SDS011;38322;53.108;6.308;2023-08-06T11:31:41;1.80;;;1.35;;
52396;SDS011;38322;53.108;6.308;2023-08-06T11:34:07;1.58;;;0.95;;
52396;SDS011;38322;53.108;6.308;2023-08-06T11:36:36;1.58;;;0.82;;
52396;SDS011;38322;53.108;6.308;2023-08-06T11:41:31;2.40;;;1.02;;
52396;SDS011;38322;53.108;6.308;2023-08-06T11:43:58;2.03;;;1.30;;
52396;SDS011;38322;53.108;6.308;2023-08-06T11:46:24;1.27;;;0.70;;
52396;SDS011;38322;53.108;6.308;2023-08-06T11:48:54;2.97;;;1.13;;
52396;SDS011;38322;53.108;6.308;2023-08-06T11:51:24;1.83;;;1.08;;
52396;SDS011;38322;53.108;6.308;2023-08-06T11:53:56;2.33;;;1.27;;
52396;SDS011;38322;53.108;6.308;2023-08-06T11:56:23;2.42;;;1.10;;
52396;SDS011;38322;53.108;6.308;2023-08-06T11:58:51;2.28;;;1.20;;
52396;SDS011;38322;53.108;6.308;2023-08-06T12:01:17;2.53;;;1.33;;
52396;SDS011;38322;53.108;6.308;2023-08-06T12:03:43;1.50;;;0.70;;
52396;SDS011;38322;53.108;6.308;2023-08-06T12:06:09;1.15;;;0.93;;
52396;SDS011;38322;53.108;6.308;2023-08-06T12:08:35;1.90;;;1.25;;
52396;SDS011;38322;53.108;6.308;2023-08-06T12:11:03;2.38;;;0.93;;
52396;SDS011;38322;53.108;6.308;2023-08-06T12:13:29;1.60;;;0.93;;
52396;SDS011;38322;53.108;6.308;2023-08-06T12:15:55;3.33;;;1.05;;
52396;SDS011;38322;53.108;6.308;2023-08-06T12:18:22;2.13;;;0.88;;
52396;SDS011;38322;53.108;6.308;2023-08-06T12:20:48;4.80;;;1.65;;
52396;SDS011;38322;53.108;6.308;2023-08-06T12:23:14;3.25;;;0.90;;
52396;SDS011;38322;53.108;6.308;2023-08-06T12:25:41;1.63;;;1.35;;
52396;SDS011;38322;53.108;6.308;2023-08-06T12:28:07;5.30;;;1.38;;
52396;SDS011;38322;53.108;6.308;2023-08-06T12:30:34;2.55;;;1.13;;
52396;SDS011;38322;53.108;6.308;2023-08-06T12:33:00;3.53;;;1.30;;
52396;SDS011;38322;53.108;6.308;2023-08-06T12:35:26;1.58;;;1.20;;
52396;SDS011;38322;53.108;6.308;2023-08-06T12:37:52;4.18;;;1.33;;
52396;SDS011;38322;53.108;6.308;2023-08-06T12:40:22;0.98;;;0.77;;
52396;SDS011;38322;53.108;6.308;2023-08-06T12:42:49;1.38;;;0.93;;
52396;SDS011;38322;53.108;6.308;2023-08-06T12:45:15;3.92;;;1.20;;
52396;SDS011;38322;53.108;6.308;2023-08-06T12:47:41;1.48;;;1.10;;
52396;SDS011;38322;53.108;6.308;2023-08-06T12:50:08;3.15;;;1.30;;
52396;SDS011;38322;53.108;6.308;2023-08-06T12:52:34;3.38;;;1.17;;
52396;SDS011;38322;53.108;6.308;2023-08-06T12:55:00;3.10;;;1.20;;
52396;SDS011;38322;53.108;6.308;2023-08-06T12:57:25;1.02;;;0.75;;
52396;SDS011;38322;53.108;6.308;2023-08-06T12:59:52;2.97;;;1.38;;
52396;SDS011;38322;53.108;6.308;2023-08-06T13:02:18;2.97;;;0.98;;
52396;SDS011;38322;53.108;6.308;2023-08-06T13:04:45;2.17;;;1.33;;
52396;SDS011;38322;53.108;6.308;2023-08-06T13:07:11;4.00;;;1.70;;
52396;SDS011;38322;53.108;6.308;2023-08-06T13:09:37;1.55;;;1.10;;
52396;SDS011;38322;53.108;6.308;2023-08-06T13:12:03;1.40;;;0.98;;
52396;SDS011;38322;53.108;6.308;2023-08-06T13:14:31;1.92;;;1.27;;
52396;SDS011;38322;53.108;6.308;2023-08-06T13:16:57;4.93;;;1.80;;
52396;SDS011;38322;53.108;6.308;2023-08-06T13:19:24;1.30;;;1.00;;
52396;SDS011;38322;53.108;6.308;2023-08-06T13:24:15;3.58;;;0.75;;
52396;SDS011;38322;53.108;6.308;2023-08-06T13:26:41;2.38;;;0.90;;
52396;SDS011;38322;53.108;6.308;2023-08-06T13:29:07;2.28;;;1.00;;
52396;SDS011;38322;53.108;6.308;2023-08-06T13:31:33;1.02;;;0.90;;
52396;SDS011;38322;53.108;6.308;2023-08-06T13:33:59;2.90;;;1.05;;
52396;SDS011;38322;53.108;6.308;2023-08-06T13:36:28;1.77;;;0.93;;
52396;SDS011;38322;53.108;6.308;2023-08-06T13:38:54;3.78;;;0.50;;
52396;SDS011;38322;53.108;6.308;2023-08-06T13:41:20;3.53;;;1.10;;
52396;SDS011;38322;53.108;6.308;2023-08-06T13:43:47;1.65;;;1.10;;
52396;SDS011;38322;53.108;6.308;2023-08-06T13:46:12;2.92;;;1.20;;
52396;SDS011;38322;53.108;6.308;2023-08-06T13:48:43;4.35;;;1.60;;
52396;SDS011;38322;53.108;6.308;2023-08-06T13:51:10;4.05;;;0.90;;
52396;SDS011;38322;53.108;6.308;2023-08-06T13:53:37;4.57;;;1.67;;
52396;SDS011;38322;53.108;6.308;2023-08-06T13:56:06;3.33;;;1.23;;
52396;SDS011;38322;53.108;6.308;2023-08-06T13:58:35;1.73;;;1.17;;
52396;SDS011;38322;53.108;6.308;2023-08-06T14:01:00;3.35;;;1.30;;
52396;SDS011;38322;53.108;6.308;2023-08-06T14:03:26;2.92;;;1.33;;
52396;SDS011;38322;53.108;6.308;2023-08-06T14:05:52;2.05;;;1.35;;
52396;SDS011;38322;53.108;6.308;2023-08-06T14:08:21;1.23;;;1.00;;
52396;SDS011;38322;53.108;6.308;2023-08-06T14:10:48;2.15;;;0.85;;
52396;SDS011;38322;53.108;6.308;2023-08-06T14:13:14;2.22;;;1.35;;
52396;SDS011;38322;53.108;6.308;2023-08-06T14:15:40;1.08;;;0.70;;
52396;SDS011;38322;53.108;6.308;2023-08-06T14:18:07;1.30;;;1.10;;
52396;SDS011;38322;53.108;6.308;2023-08-06T14:20:36;3.13;;;1.20;;
52396;SDS011;38322;53.108;6.308;2023-08-06T14:23:01;8.65;;;1.15;;
52396;SDS011;38322;53.108;6.308;2023-08-06T14:25:27;1.77;;;1.00;;
52396;SDS011;38322;53.108;6.308;2023-08-06T14:27:53;3.65;;;1.02;;
52396;SDS011;38322;53.108;6.308;2023-08-06T14:30:19;1.73;;;1.05;;
52396;SDS011;38322;53.108;6.308;2023-08-06T14:32:45;2.88;;;1.45;;
52396;SDS011;38322;53.108;6.308;2023-08-06T14:35:11;2.35;;;0.75;;
52396;SDS011;38322;53.108;6.308;2023-08-06T14:37:37;1.30;;;0.80;;
52396;SDS011;38322;53.108;6.308;2023-08-06T14:40:04;2.63;;;1.00;;
52396;SDS011;38322;53.108;6.308;2023-08-06T14:42:31;1.80;;;1.13;;
52396;SDS011;38322;53.108;6.308;2023-08-06T14:44:57;3.05;;;1.08;;
52396;SDS011;38322;53.108;6.308;2023-08-06T14:47:22;1.85;;;0.82;;
52396;SDS011;38322;53.108;6.308;2023-08-06T14:49:48;0.95;;;0.55;;
52396;SDS011;38322;53.108;6.308;2023-08-06T14:52:16;3.55;;;1.10;;
52396;SDS011;38322;53.108;6.308;2023-08-06T14:54:42;0.85;;;0.63;;
52396;SDS011;38322;53.108;6.308;2023-08-06T14:57:09;1.95;;;1.17;;
52396;SDS011;38322;53.108;6.308;2023-08-06T14:59:35;1.17;;;1.08;;
52396;SDS011;38322;53.108;6.308;2023-08-06T15:02:01;1.25;;;0.80;;
52396;SDS011;38322;53.108;6.308;2023-08-06T15:04:27;2.03;;;0.77;;
52396;SDS011;38322;53.108;6.308;2023-08-06T15:06:53;1.38;;;0.90;;
52396;SDS011;38322;53.108;6.308;2023-08-06T15:09:19;2.42;;;1.10;;
52396;SDS011;38322;53.108;6.308;2023-08-06T15:11:47;1.65;;;0.80;;
52396;SDS011;38322;53.108;6.308;2023-08-06T15:14:13;1.30;;;0.63;;
52396;SDS011;38322;53.108;6.308;2023-08-06T15:16:40;2.45;;;1.02;;
52396;SDS011;38322;53.108;6.308;2023-08-06T15:19:06;2.38;;;0.77;;
52396;SDS011;38322;53.108;6.308;2023-08-06T15:21:32;2.78;;;1.30;;
52396;SDS011;38322;53.108;6.308;2023-08-06T15:23:58;2.28;;;1.10;;
52396;SDS011;38322;53.108;6.308;2023-08-06T15:26:23;4.18;;;1.30;;
52396;SDS011;38322;53.108;6.308;2023-08-06T15:28:49;0.75;;;0.60;;
52396;SDS011;38322;53.108;6.308;2023-08-06T15:31:18;1.00;;;0.80;;
52396;SDS011;38322;53.108;6.308;2023-08-06T15:33:45;0.93;;;0.60;;
52396;SDS011;38322;53.108;6.308;2023-08-06T15:36:11;2.28;;;1.15;;
52396;SDS011;38322;53.108;6.308;2023-08-06T15:38:37;1.73;;;0.60;;
52396;SDS011;38322;53.108;6.308;2023-08-06T15:41:03;1.60;;;0.70;;
52396;SDS011;38322;53.108;6.308;2023-08-06T15:43:28;5.47;;;1.20;;
52396;SDS011;38322;53.108;6.308;2023-08-06T15:45:55;1.40;;;1.30;;
52396;SDS011;38322;53.108;6.308;2023-08-06T15:48:20;2.30;;;1.00;;
52396;SDS011;38322;53.108;6.308;2023-08-06T15:50:46;2.55;;;1.30;;
52396;SDS011;38322;53.108;6.308;2023-08-06T15:53:12;1.67;;;0.95;;
52396;SDS011;38322;53.108;6.308;2023-08-06T15:55:38;1.58;;;0.70;;
52396;SDS011;38322;53.108;6.308;2023-08-06T15:58:04;3.60;;;0.68;;
52396;SDS011;38322;53.108;6.308;2023-08-06T16:00:30;1.70;;;1.15;;
52396;SDS011;38322;53.108;6.308;2023-08-06T16:02:56;1.80;;;0.93;;
52396;SDS011;38322;53.108;6.308;2023-08-06T16:05:22;1.75;;;1.02;;
52396;SDS011;38322;53.108;6.308;2023-08-06T16:07:51;1.10;;;0.77;;
52396;SDS011;38322;53.108;6.308;2023-08-06T16:10:17;1.92;;;1.17;;
52396;SDS011;38322;53.108;6.308;2023-08-06T16:12:43;1.90;;;1.25;;
52396;SDS011;38322;53.108;6.308;2023-08-06T16:15:09;1.60;;;1.00;;
52396;SDS011;38322;53.108;6.308;2023-08-06T16:17:35;1.33;;;0.73;;
52396;SDS011;38322;53.108;6.308;2023-08-06T16:20:02;4.57;;;1.30;;
52396;SDS011;38322;53.108;6.308;2023-08-06T16:22:28;4.65;;;2.00;;
52396;SDS011;38322;53.108;6.308;2023-08-06T16:24:54;1.60;;;0.93;;
52396;SDS011;38322;53.108;6.308;2023-08-06T16:27:20;1.55;;;1.25;;
52396;SDS011;38322;53.108;6.308;2023-08-06T16:29:46;1.33;;;0.85;;
52396;SDS011;38322;53.108;6.308;2023-08-06T16:32:13;1.85;;;0.80;;
52396;SDS011;38322;53.108;6.308;2023-08-06T16:34:39;3.67;;;1.10;;
52396;SDS011;38322;53.108;6.308;2023-08-06T16:37:05;2.30;;;1.52;;
52396;SDS011;38322;53.108;6.308;2023-08-06T16:39:31;4.68;;;1.85;;
52396;SDS011;38322;53.108;6.308;2023-08-06T16:41:57;3.42;;;1.75;;
52396;SDS011;38322;53.108;6.308;2023-08-06T16:44:24;4.25;;;2.15;;
52396;SDS011;38322;53.108;6.308;2023-08-06T16:46:51;2.75;;;1.98;;
52396;SDS011;38322;53.108;6.308;2023-08-06T16:49:16;3.92;;;1.48;;
52396;SDS011;38322;53.108;6.308;2023-08-06T16:51:42;3.03;;;1.65;;
52396;SDS011;38322;53.108;6.308;2023-08-06T16:54:08;3.45;;;1.45;;
52396;SDS011;38322;53.108;6.308;2023-08-06T16:56:34;2.95;;;2.13;;
52396;SDS011;38322;53.108;6.308;2023-08-06T16:59:00;3.00;;;1.48;;
52396;SDS011;38322;53.108;6.308;2023-08-06T17:01:26;2.25;;;1.25;;
52396;SDS011;38322;53.108;6.308;2023-08-06T17:03:52;2.30;;;1.02;;
52396;SDS011;38322;53.108;6.308;2023-08-06T17:06:20;2.28;;;1.33;;
52396;SDS011;38322;53.108;6.308;2023-08-06T17:08:47;2.80;;;1.23;;
52396;SDS011;38322;53.108;6.308;2023-08-06T17:11:13;2.38;;;1.55;;
52396;SDS011;38322;53.108;6.308;2023-08-06T17:13:39;4.85;;;1.27;;
52396;SDS011;38322;53.108;6.308;2023-08-06T17:16:05;2.60;;;0.98;;
52396;SDS011;38322;53.108;6.308;2023-08-06T17:18:30;4.00;;;1.33;;
52396;SDS011;38322;53.108;6.308;2023-08-06T17:20:56;2.50;;;1.20;;
52396;SDS011;38322;53.108;6.308;2023-08-06T17:23:25;4.30;;;1.60;;
52396;SDS011;38322;53.108;6.308;2023-08-06T17:25:52;2.80;;;1.95;;
52396;SDS011;38322;53.108;6.308;2023-08-06T17:28:19;2.47;;;1.50;;
52396;SDS011;38322;53.108;6.308;2023-08-06T17:30:45;3.58;;;1.65;;
52396;SDS011;38322;53.108;6.308;2023-08-06T17:33:11;2.00;;;1.27;;
52396;SDS011;38322;53.108;6.308;2023-08-06T17:35:41;2.55;;;1.33;;
52396;SDS011;38322;53.108;6.308;2023-08-06T17:38:08;4.18;;;1.50;;
52396;SDS011;38322;53.108;6.308;2023-08-06T17:40:35;1.88;;;0.88;;
52396;SDS011;38322;53.108;6.308;2023-08-06T17:43:01;2.20;;;1.02;;
52396;SDS011;38322;53.108;6.308;2023-08-06T17:45:27;1.75;;;0.90;;
52396;SDS011;38322;53.108;6.308;2023-08-06T17:47:52;2.45;;;1.05;;
52396;SDS011;38322;53.108;6.308;2023-08-06T17:50:18;3.85;;;1.10;;
52396;SDS011;38322;53.108;6.308;2023-08-06T17:52:44;1.90;;;1.30;;
52396;SDS011;38322;53.108;6.308;2023-08-06T17:55:11;2.92;;;1.20;;
52396;SDS011;38322;53.108;6.308;2023-08-06T17:57:37;3.22;;;1.33;;
52396;SDS011;38322;53.108;6.308;2023-08-06T18:00:03;2.15;;;1.17;;
52396;SDS011;38322;53.108;6.308;2023-08-06T18:02:30;2.58;;;1.63;;
52396;SDS011;38322;53.108;6.308;2023-08-06T18:04:56;4.05;;;1.73;;
52396;SDS011;38322;53.108;6.308;2023-08-06T18:07:22;3.75;;;1.38;;
52396;SDS011;38322;53.108;6.308;2023-08-06T18:09:48;3.22;;;1.30;;
52396;SDS011;38322;53.108;6.308;2023-08-06T18:12:14;1.75;;;1.25;;
52396;SDS011;38322;53.108;6.308;2023-08-06T18:14:40;5.40;;;1.75;;
52396;SDS011;38322;53.108;6.308;2023-08-06T18:17:06;2.38;;;1.70;;
52396;SDS011;38322;53.108;6.308;2023-08-06T18:19:32;3.20;;;1.65;;
52396;SDS011;38322;53.108;6.308;2023-08-06T18:22:00;4.07;;;2.50;;
52396;SDS011;38322;53.108;6.308;2023-08-06T18:24:26;3.30;;;1.30;;
52396;SDS011;38322;53.108;6.308;2023-08-06T18:26:52;3.05;;;1.50;;
52396;SDS011;38322;53.108;6.308;2023-08-06T18:29:17;3.92;;;1.60;;
52396;SDS011;38322;53.108;6.308;2023-08-06T18:31:43;3.58;;;1.77;;
52396;SDS011;38322;53.108;6.308;2023-08-06T18:34:09;3.00;;;1.52;;
52396;SDS011;38322;53.108;6.308;2023-08-06T18:36:35;4.75;;;1.33;;
52396;SDS011;38322;53.108;6.308;2023-08-06T18:39:01;5.30;;;1.65;;
52396;SDS011;38322;53.108;6.308;2023-08-06T18:41:27;3.97;;;1.88;;
52396;SDS011;38322;53.108;6.308;2023-08-06T18:43:53;9.13;;;2.28;;
52396;SDS011;38322;53.108;6.308;2023-08-06T18:46:19;7.75;;;2.47;;
52396;SDS011;38322;53.108;6.308;2023-08-06T18:48:44;4.10;;;2.22;;
52396;SDS011;38322;53.108;6.308;2023-08-06T18:51:11;2.78;;;1.83;;
52396;SDS011;38322;53.108;6.308;2023-08-06T18:53:37;6.07;;;1.40;;
52396;SDS011;38322;53.108;6.308;2023-08-06T18:56:03;4.53;;;1.90;;
52396;SDS011;38322;53.108;6.308;2023-08-06T18:58:29;5.75;;;2.15;;
52396;SDS011;38322;53.108;6.308;2023-08-06T19:00:55;5.20;;;1.98;;
52396;SDS011;38322;53.108;6.308;2023-08-06T19:03:22;4.63;;;1.85;;
52396;SDS011;38322;53.108;6.308;2023-08-06T19:05:48;2.28;;;1.30;;
52396;SDS011;38322;53.108;6.308;2023-08-06T19:08:14;4.45;;;1.60;;
52396;SDS011;38322;53.108;6.308;2023-08-06T19:10:40;4.28;;;2.20;;
52396;SDS011;38322;53.108;6.308;2023-08-06T19:13:07;5.35;;;2.83;;
52396;SDS011;38322;53.108;6.308;2023-08-06T19:15:34;4.40;;;2.13;;
52396;SDS011;38322;53.108;6.308;2023-08-06T19:18:01;9.02;;;2.30;;
52396;SDS011;38322;53.108;6.308;2023-08-06T19:20:27;9.57;;;2.72;;
52396;SDS011;38322;53.108;6.308;2023-08-06T19:22:53;6.20;;;2.55;;
52396;SDS011;38322;53.108;6.308;2023-08-06T19:25:19;4.75;;;2.38;;
52396;SDS011;38322;53.108;6.308;2023-08-06T19:27:45;4.85;;;2.63;;
52396;SDS011;38322;53.108;6.308;2023-08-06T19:30:11;4.18;;;2.70;;
52396;SDS011;38322;53.108;6.308;2023-08-06T19:32:37;4.72;;;2.55;;
52396;SDS011;38322;53.108;6.308;2023-08-06T19:35:03;3.33;;;2.15;;
52396;SDS011;38322;53.108;6.308;2023-08-06T19:37:29;4.22;;;2.88;;
52396;SDS011;38322;53.108;6.308;2023-08-06T19:39:55;3.42;;;3.13;;
52396;SDS011;38322;53.108;6.308;2023-08-06T19:42:21;8.82;;;2.60;;
52396;SDS011;38322;53.108;6.308;2023-08-06T19:44:46;4.07;;;3.55;;
52396;SDS011;38322;53.108;6.308;2023-08-06T19:47:12;3.75;;;3.40;;
52396;SDS011;38322;53.108;6.308;2023-08-06T19:49:38;3.78;;;3.03;;
52396;SDS011;38322;53.108;6.308;2023-08-06T19:52:04;3.15;;;2.83;;
52396;SDS011;38322;53.108;6.308;2023-08-06T19:54:30;3.55;;;3.25;;
52396;SDS011;38322;53.108;6.308;2023-08-06T19:56:56;4.07;;;3.17;;